ブダペスト の空港の天気 - METARとTAF

ブダペスト/フェリヘギ空港 ( LHBP / BUD ) - ハンガリー ブダペスト
飛行場実況気象(Metar)
観測時間06/15 00:00 CEST (06/14 22:00 UTC)
風向・風速南東 2m/s
視程10km以上
天気現象
なし
気温16℃
湿度63%
気圧1019hPa
METARLHBP 142200Z 13003KT CAVOK 16/09 Q1019 NOSIG
過去の天気等 Google飛行場航空写真 Wunderground天気予報

過去48時間のMETAR

飛行場予報(TAF)
発表時間: 6/14 19:15 CEST (6/14 17:15 UTC)
予報対象時間: 14日20時 CEST ~ 15日20時 CEST
風向・風速不定 2m/s
視程10km以上
なし
15日15時 CEST ~ 15日20時 CEST に一時的に
風向・風速北西 4m/s
TAF LHBP 141715Z 1418/1518 VRB03KT CAVOK
TEMPO 1513/1518 31007KT